Record high temperature 41.9°C Record low temperature 8.7°C Record high gust 19.2 km/h Record high average 8.1 km/h Record daily rain 41.5 mm Record low windchill 8.7°C Record high barometer 1017.6 hPa Record low barometer 950.5 hPa
Daily high pressure 1017.6 mb Daily low pressure 1011.3 mb Daily low windchill 11.6°C Daily high heat index 29.1°C Daily high gust speed 11.5 kmh NW Daily high average speed 2.4 kmh SE
Weather Conditions in Pucioasa, Romania
LAST READING AT TIME: 23:40 PM DATE: 29 August 2014, time of next update: 11:50 pm
Current WeatherNight time/Dry Current Temperature 12.7°C (54.9°F), Apparent temp 13.0°C
Maximum Temperature (since midnight)29.6°C at: 6:49 PM Minimum Temperature (since midnight)11.6°C at: 12:21 AM
Average windspeed (ten minute)0.1 kmh (0.1 kts) Wind Direction (ten minute)SSE (153°)
Windchill Temperature 12.7°C Maximum Gust (last hour)0.2 kmh (0.1 kts) at: 11:33PM
Maximum Gust (since midnight)11.5 kmh (6.2 kts) at: 4:13 PM Maximum 1 minute average (since midnight)2.4 kmh (1.3 kts) at: 3:39 PM
Rainfall (last hour)0.0 mm Rainfall (since midnight)0.0 mm (0.00 in.)---
Rainfall This month 60.4 mm (2.38 in.) Rainfall To date this year 247.8 mm (9.76 in.)
Maximum rain per minute (last hour)0.0 mm/min Maximum rain per hour (last 6 hours)0.0 mm/hour
Yesterdays rainfall 0.0 mm DewPoint 10.4°C (Wet Bulb :11.5°C )
Humidity 86 %, Humidex 14.2°C Barometer corrected to msl1014.6 mb
Pressure change -0.1 mb (last hour) Trend (last hour)STEADY
Pressure change (last 12 hours)-2.6 mb Pressure change (last 6 hours)+0.0 mb

Status report of weather station: TFA-Nexus, online



Weather report/warning/Metars

Bucuresti Otopeni, Romania (LROP) 44-33N 026-06E 95M
Aug 29, 2014 - 04:00 PM EDT / 2014.08.29 2000 UTC
Wind: from the E (100 degrees) at 1 MPH (1 KT):0
Visibility: greater than 7 mile(s):0
Temperature: 60 F (16 C)
Dew Point: 50 F (10 C)
Relative Humidity: 67%
Pressure (altimeter): 30.12 in. Hg (1020 hPa)
ob: LROP 292000Z 10001KT CAVOK 16/10 Q1020 NOSIG
cycle: 20
Arad, Romania (LRAR) 46-12N 021-24E 118M
Aug 29, 2014 - 04:00 PM EDT / 2014.08.29 2000 UTC
Wind: from the ESE (120 degrees) at 5 MPH (4 KT):0
Visibility: greater than 7 mile(s):0
Temperature: 60 F (16 C)
Dew Point: 59 F (15 C)
Relative Humidity: 93%
Pressure (altimeter): 30.09 in. Hg (1019 hPa)
ob: LRAR 292000Z 12004KT CAVOK 16/15 Q1019
cycle: 20
Baia Mare, Romania (LRBM) 47-40N 023-35E 194M
Aug 29, 2014 - 04:00 PM EDT / 2014.08.29 2000 UTC
Wind: from the NE (050 degrees) at 5 MPH (4 KT) (direction variable):0
Visibility: greater than 7 mile(s):0
Sky conditions: partly cloudy
Temperature: 57 F (14 C)
Dew Point: 48 F (9 C)
Relative Humidity: 71%
Pressure (altimeter): 30.12 in. Hg (1020 hPa)
ob: LRBM 292000Z AUTO 05004KT 010V080 9999 FEW100 SCT240 14/09 Q1020
cycle: 20
Bacau, Romania (LRBC) 46-35N 026-58E 190M
Aug 29, 2014 - 04:00 PM EDT / 2014.08.29 2000 UTC
Wind: Calm:0
Visibility: greater than 7 mile(s):0
Temperature: 59 F (15 C)
Dew Point: 53 F (12 C)
Relative Humidity: 82%
Pressure (altimeter): 30.15 in. Hg (1021 hPa)
ob: LRBC 292000Z 00000KT CAVOK 15/12 Q1021
cycle: 20
Kogalniceanu, Romania (LRCK) 44-20N 028-26E 102M
Aug 29, 2014 - 04:00 PM EDT / 2014.08.29 2000 UTC
Wind: from the SSW (210 degrees) at 5 MPH (4 KT):0
Visibility: greater than 7 mile(s):0
Temperature: 62 F (17 C)
Dew Point: 51 F (11 C)
Relative Humidity: 67%
Pressure (altimeter): 30.15 in. Hg (1021 hPa)
ob: LRCK 292000Z 21004KT CAVOK 17/11 Q1021 NOSIG
cycle: 20
Sibiu, Romania (LRSB) 45-48N 024-09E 444M
Aug 29, 2014 - 04:00 PM EDT / 2014.08.29 2000 UTC
Wind: Calm:0
Visibility: greater than 7 mile(s):0
Temperature: 55 F (13 C)
Dew Point: 51 F (11 C)
Relative Humidity: 87%
Pressure (altimeter): 30.15 in. Hg (1021 hPa)
ob: LRSB 292000Z 00000KT CAVOK 13/11 Q1021
cycle: 20
Tirgu Mures, Romania (LRTM) 46-32N 024-32E 309M
Aug 29, 2014 - 04:00 PM EDT / 2014.08.29 2000 UTC
Wind: from the E (080 degrees) at 7 MPH (6 KT):0
Visibility: greater than 7 mile(s):0
Temperature: 51 F (11 C)
Dew Point: 50 F (10 C)
Relative Humidity: 93%
Pressure (altimeter): 30.15 in. Hg (1021 hPa)
ob: LRTM 292000Z 08006KT CAVOK 11/10 Q1021
cycle: 20
Craiova, Romania (LRCV) 44-14N 023-52E 195M
Aug 29, 2014 - 04:00 PM EDT / 2014.08.29 2000 UTC
Wind: from the NE (050 degrees) at 7 MPH (6 KT):0
Visibility: greater than 7 mile(s):0
Temperature: 60 F (16 C)
Dew Point: 51 F (11 C)
Relative Humidity: 72%
Pressure (altimeter): 30.12 in. Hg (1020 hPa)
ob: LRCV 292000Z 05006KT CAVOK 16/11 Q1020
cycle: 20
BALTIMORE-WASHINGTON INTERNATIONAL , MD, United States (KBWI) 39-10N 076-41W 59M
Aug 29, 2014 - 03:54 PM EDT / 2014.08.29 1954 UTC
Wind: from the NE (040 degrees) at 7 MPH (6 KT):0
Visibility: 10 mile(s):0
Sky conditions: partly cloudy
Temperature: 78.1 F (25.6 C)
Dew Point: 50.0 F (10.0 C)
Relative Humidity: 37%
Pressure (altimeter): 30.16 in. Hg (1021 hPa)
ob: KBWI 291954Z 04006KT 10SM FEW065 SCT250 26/10 A3016 RMK AO2 SLP210 T02560100
cycle: 20